Time;durP1;ratioP1;P1;durP2;ratioP2;P2;SDS_P1;SDS_P2;PMS_P1;PMS_P2;Temp;Humidity;BMP_temperature;BMP_pressure;BME280_temperature;BME280_humidity;BME280_pressure;Samples;Min_cycle;Max_cycle;Signal;HPM_P1;HPM_P2
2021/12/10 00:01:01;;;;;;;82.73;25.53;;;1.50;75.20;;;;;;5014201;28;20022;-87
2021/12/10 00:03:31;;;;;;;84.40;26.27;;;1.50;75.20;;;;;;5014720;28;20018;-87
2021/12/10 00:06:10;;;;;;;88.60;27.13;;;1.50;75.20;;;;;;5014603;28;20022;-87
2021/12/10 00:08:40;;;;;;;83.33;26.93;;;1.50;75.30;;;;;;5018349;28;20496;-87
2021/12/10 00:11:16;;;;;;;76.40;25.63;;;1.50;75.30;;;;;;5018755;28;20038;-87
2021/12/10 00:13:44;;;;;;;;;;;1.50;75.30;;;;;;5019290;28;20025;-87
2021/12/10 00:16:11;;;;;;;80.40;24.73;;;1.60;75.30;;;;;;5019260;28;19910;-87
2021/12/10 00:18:40;;;;;;;80.77;25.73;;;1.60;75.10;;;;;;5018902;28;20034;-87
2021/12/10 00:21:06;;;;;;;85.17;26.30;;;1.60;75.20;;;;;;5018790;28;20028;-87
2021/12/10 00:23:33;;;;;;;;;;;1.60;75.20;;;;;;5019572;28;20116;-87
2021/12/10 00:26:01;;;;;;;62.10;20.07;;;1.60;75.30;;;;;;5018560;28;19905;-87
2021/12/10 00:28:40;;;;;;;83.17;26.57;;;1.60;75.00;;;;;;5019634;28;20117;-87
2021/12/10 00:31:31;;;;;;;90.33;25.47;;;1.60;75.10;;;;;;5018849;28;20033;-87
2021/12/10 00:33:59;;;;;;;86.97;25.43;;;1.60;75.10;;;;;;5018576;28;20017;-87
2021/12/10 00:36:25;;;;;;;82.23;27.27;;;1.60;75.10;;;;;;5018604;28;20030;-86
2021/12/10 00:38:53;;;;;;;76.60;27.33;;;1.60;75.20;;;;;;5017999;28;20108;-87
2021/12/10 00:41:22;;;;;;;99.20;28.10;;;1.70;75.20;;;;;;5021606;28;20021;-86
2021/12/10 00:43:48;;;;;;;97.60;29.03;;;1.70;75.30;;;;;;5041057;28;20056;-86
2021/12/10 00:46:15;;;;;;;85.07;26.90;;;1.80;75.30;;;;;;5040355;28;20017;-86
2021/12/10 00:48:43;;;;;;;100.10;30.70;;;1.80;75.20;;;;;;5041654;28;20529;-86
2021/12/10 00:51:11;;;;;;;82.27;28.13;;;1.80;75.20;;;;;;5041239;28;20017;-86
2021/12/10 00:53:37;;;;;;;89.03;28.33;;;1.80;75.20;;;;;;5041426;28;20056;-86
2021/12/10 00:56:04;;;;;;;88.50;28.83;;;1.80;75.10;;;;;;5041542;28;20071;-86
2021/12/10 00:58:30;;;;;;;90.67;28.03;;;1.80;75.10;;;;;;5041598;28;20523;-87
2021/12/10 01:01:02;;;;;;;92.73;27.83;;;1.80;75.10;;;;;;5041972;28;20029;-87
2021/12/10 01:03:46;;;;;;;89.20;27.30;;;1.80;75.10;;;;;;5041336;28;20029;-87
2021/12/10 01:06:14;;;;;;;95.13;29.63;;;1.80;75.10;;;;;;5040882;28;20021;-86
2021/12/10 01:08:45;;;;;;;82.43;26.03;;;1.90;75.10;;;;;;5040825;28;20021;-86
2021/12/10 01:11:20;;;;;;;92.27;29.67;;;1.80;75.10;;;;;;5030906;28;20069;-86
2021/12/10 01:13:48;;;;;;;85.73;29.00;;;1.90;75.10;;;;;;5017972;28;20434;-87
2021/12/10 01:27:32;;;;;;;82.97;28.13;;;1.90;74.90;;;;;;5046770;28;20099;-88
2021/12/10 01:30:05;;;;;;;91.20;28.60;;;1.90;75.00;;;;;;5026914;28;20034;-88
2021/12/10 01:32:34;;;;;;;89.73;27.97;;;1.90;75.00;;;;;;5034375;28;20040;-88
2021/12/10 01:34:59;;;;;;;94.43;29.20;;;1.90;75.00;;;;;;5028704;28;20036;-88
2021/12/10 01:37:25;;;;;;;;;;;1.90;75.00;;;;;;5029161;28;20478;-87
2021/12/10 01:39:53;;;;;;;90.70;26.40;;;2.00;75.10;;;;;;5032149;28;19909;-88
2021/12/10 01:43:07;;;;;;;96.23;29.50;;;2.00;74.70;;;;;;5024590;28;20033;-89
2021/12/10 01:45:18;;;;;;;72.53;22.15;;;2.00;74.80;;;;;;5023592;28;20029;-89
2021/12/10 01:47:46;;;;;;;87.17;28.73;;;2.00;74.80;;;;;;5017563;28;20029;-88
2021/12/10 01:50:12;;;;;;;89.50;28.90;;;2.10;74.80;;;;;;5024178;28;20056;-88
2021/12/10 01:52:38;;;;;;;;;;;2.00;74.90;;;;;;5033228;28;20049;-88
2021/12/10 01:55:05;;;;;;;94.20;29.33;;;2.10;74.90;;;;;;5027451;28;19936;-89
2021/12/10 01:57:35;;;;;;;96.47;29.13;;;2.10;74.60;;;;;;5017433;28;20022;-88
2021/12/10 02:00:01;;;;;;;101.43;29.60;;;2.00;74.70;;;;;;5033137;28;20630;-88
2021/12/10 02:02:32;;;;;;;96.30;30.23;;;2.00;74.70;;;;;;5033519;28;20440;-89
2021/12/10 02:04:57;;;;;;;93.30;30.83;;;2.00;74.80;;;;;;5033172;28;20079;-88
2021/12/10 02:07:24;;;;;;;;;;;2.00;74.90;;;;;;5034563;28;20025;-88
2021/12/10 02:09:50;;;;;;;68.65;22.20;;;2.00;74.90;;;;;;5028917;28;19916;-88
2021/12/10 02:12:18;;;;;;;89.57;28.03;;;2.00;74.70;;;;;;5034210;28;20553;-88
2021/12/10 02:14:45;;;;;;;95.37;30.60;;;2.00;74.70;;;;;;5027901;28;20490;-88
2021/12/10 02:17:11;;;;;;;87.97;30.17;;;2.00;74.90;;;;;;5027599;28;20056;-87
2021/12/10 02:19:38;;;;;;;;;;;1.90;75.00;;;;;;5033740;28;20021;-87
2021/12/10 02:22:05;;;;;;;66.60;19.80;;;1.90;75.00;;;;;;5024081;28;19963;-86
2021/12/10 02:24:32;;;;;;;88.67;26.87;;;2.00;74.70;;;;;;5016303;28;20026;-86
2021/12/10 02:27:04;;;;;;;83.30;27.50;;;2.00;74.80;;;;;;5038399;28;20033;-86
2021/12/10 02:29:33;;;;;;;94.30;28.30;;;1.90;74.90;;;;;;5039020;28;20395;-86
2021/12/10 02:32:00;;;;;;;89.67;27.33;;;1.90;75.00;;;;;;5039377;28;20021;-86
2021/12/10 02:34:26;;;;;;;90.03;28.17;;;1.90;75.00;;;;;;5038849;28;20052;-86
2021/12/10 02:36:53;;;;;;;88.17;26.03;;;1.90;75.10;;;;;;5038478;28;20017;-87
2021/12/10 02:39:23;;;;;;;108.23;29.17;;;1.90;75.10;;;;;;5035153;28;20022;-86
2021/12/10 02:41:50;;;;;;;100.63;29.37;;;1.90;75.10;;;;;;5018824;28;20048;-87
2021/12/10 02:44:21;;;;;;;100.07;29.40;;;1.90;75.10;;;;;;5018331;28;20028;-86
2021/12/10 02:46:47;;;;;;;92.40;30.60;;;1.80;75.10;;;;;;5018430;28;20163;-86
2021/12/10 02:49:13;;;;;;;96.77;30.10;;;1.90;75.20;;;;;;5018237;28;20032;-86
2021/12/10 02:51:40;;;;;;;100.90;32.97;;;1.80;75.20;;;;;;5018047;28;20057;-86
2021/12/10 02:54:09;;;;;;;98.23;31.77;;;1.80;75.30;;;;;;5017886;28;20026;-87
2021/12/10 02:56:35;;;;;;;106.33;31.40;;;1.80;75.30;;;;;;5018297;28;20032;-86
2021/12/10 02:59:01;;;;;;;;;;;1.80;75.30;;;;;;5018609;28;20025;-87
2021/12/10 03:01:33;;;;;;;93.50;28.77;;;1.80;75.30;;;;;;5036170;28;19936;-87
2021/12/10 03:04:00;;;;;;;88.67;30.67;;;1.70;75.10;;;;;;5018068;28;20029;-86
2021/12/10 03:06:26;;;;;;;106.90;30.63;;;1.70;75.20;;;;;;5017871;28;20076;-87
2021/12/10 03:08:54;;;;;;;92.27;28.90;;;1.60;75.40;;;;;;5048908;28;20025;-87
2021/12/10 03:11:27;;;;;;;105.20;31.63;;;1.60;75.50;;;;;;5037252;28;20346;-87
2021/12/10 03:13:53;;;;;;;110.20;31.60;;;1.50;75.60;;;;;;5037146;28;20090;-86
2021/12/10 03:16:19;;;;;;;;;;;1.50;75.80;;;;;;5038084;28;20544;-87
2021/12/10 03:18:45;;;;;;;88.17;26.43;;;1.50;75.90;;;;;;5038018;28;19904;-87
2021/12/10 03:21:12;;;;;;;93.47;29.17;;;1.50;75.60;;;;;;5038391;28;20381;-88
2021/12/10 03:23:42;;;;;;;101.80;29.43;;;1.50;75.70;;;;;;5038223;28;20017;-87
2021/12/10 03:26:14;;;;;;;100.30;30.73;;;1.50;75.60;;;;;;5039299;28;20072;-87
2021/12/10 03:28:44;;;;;;;99.37;30.67;;;1.50;75.70;;;;;;5039624;28;20531;-86
2021/12/10 03:31:12;;;;;;;86.10;27.43;;;1.60;75.70;;;;;;5039225;28;20032;-87
2021/12/10 03:33:39;;;;;;;95.40;28.50;;;1.60;75.70;;;;;;5038601;28;20039;-87
2021/12/10 03:36:06;;;;;;;105.80;30.43;;;1.60;75.70;;;;;;5038036;28;20021;-87
2021/12/10 03:38:33;;;;;;;97.03;29.90;;;1.60;75.70;;;;;;5037747;28;20044;-87
2021/12/10 03:40:59;;;;;;;103.97;29.93;;;1.60;75.60;;;;;;5038196;28;20075;-87
2021/12/10 03:43:26;;;;;;;103.40;30.63;;;1.70;75.70;;;;;;5037682;28;20017;-87
2021/12/10 03:45:55;;;;;;;92.50;30.73;;;1.70;75.70;;;;;;5038533;28;20032;-86
2021/12/10 03:48:25;;;;;;;112.33;33.50;;;1.70;75.70;;;;;;5037146;28;20416;-87
2021/12/10 03:50:53;;;;;;;102.73;29.93;;;1.70;75.70;;;;;;5037637;28;20482;-87
2021/12/10 03:53:19;;;;;;;90.90;29.83;;;1.80;75.60;;;;;;5037402;28;20041;-86
2021/12/10 03:55:46;;;;;;;;;;;1.80;75.60;;;;;;5038016;28;20020;-86
2021/12/10 03:58:11;;;;;;;93.68;28.52;;;1.80;75.70;;;;;;5037523;28;19909;-86
2021/12/10 04:00:44;;;;;;;90.75;27.80;;;1.80;75.30;;;;;;5037463;28;20033;-86
2021/12/10 04:03:11;;;;;;;89.43;26.90;;;1.80;75.30;;;;;;5035577;28;20028;-87
2021/12/10 04:05:36;;;;;;;86.80;28.07;;;1.80;75.30;;;;;;5036545;28;20171;-87
2021/12/10 04:08:02;;;;;;;;;;;1.80;75.40;;;;;;5038194;28;20486;-87
2021/12/10 04:10:28;;;;;;;82.97;26.57;;;1.80;75.50;;;;;;5055555;28;19959;-87
2021/12/10 04:12:57;;;;;;;94.57;28.90;;;1.80;75.20;;;;;;5037632;28;20116;-87
2021/12/10 04:15:23;;;;;;;98.03;30.17;;;1.80;75.40;;;;;;5021792;28;20061;-88
2021/12/10 04:17:52;;;;;;;105.53;30.67;;;1.80;75.50;;;;;;5014543;28;20371;-87
2021/12/10 04:20:19;;;;;;;117.40;32.23;;;1.80;75.50;;;;;;5014826;28;20076;-87
2021/12/10 04:22:46;;;;;;;110.90;32.63;;;1.80;75.60;;;;;;5014919;28;20445;-87
2021/12/10 04:25:14;;;;;;;105.90;32.70;;;1.80;75.60;;;;;;5014351;28;20069;-87
2021/12/10 04:27:41;;;;;;;104.90;31.83;;;1.80;75.50;;;;;;5014818;28;20032;-87
2021/12/10 04:30:10;;;;;;;100.17;30.67;;;1.90;75.60;;;;;;5026382;28;20097;-86
2021/12/10 04:32:36;;;;;;;98.10;31.17;;;1.80;75.50;;;;;;5027102;28;20033;-85
2021/12/10 04:35:02;;;;;;;;;;;1.90;75.50;;;;;;5036060;28;20033;-85
2021/12/10 04:37:28;;;;;;;67.18;21.17;;;1.80;75.60;;;;;;5016526;28;20370;-84
2021/12/10 04:39:54;;;;;;;;;;;1.90;75.30;;;;;;5027937;28;20025;-85
2021/12/10 04:42:23;;;;;;;100.07;27.77;;;1.90;75.30;;;;;;5025693;28;19939;-85
2021/12/10 04:44:52;;;;;;;90.83;28.93;;;1.90;75.10;;;;;;5036647;28;20031;-85
2021/12/10 04:47:18;;;;;;;99.77;29.33;;;1.80;75.30;;;;;;5035273;28;20039;-85
2021/12/10 04:49:43;;;;;;;;;;;1.80;75.40;;;;;;5034105;28;20556;-85
2021/12/10 04:52:11;;;;;;;91.30;28.10;;;1.80;75.50;;;;;;5035490;28;19924;-85
2021/12/10 04:54:37;;;;;;;102.17;29.63;;;1.80;75.20;;;;;;5038673;28;20100;-86
2021/12/10 04:57:04;;;;;;;;;;;1.80;75.40;;;;;;5039578;28;20063;-85
2021/12/10 04:59:32;;;;;;;116.70;35.10;;;1.80;75.50;;;;;;5025285;28;19909;-86
2021/12/10 05:02:00;;;;;;;124.67;36.63;;;1.80;75.20;;;;;;5017099;28;20245;-85
2021/12/10 05:04:28;;;;;;;119.63;36.77;;;1.80;75.30;;;;;;5024612;28;20071;-86
2021/12/10 05:06:54;;;;;;;100.20;31.63;;;1.70;75.50;;;;;;5021677;28;20026;-86
2021/12/10 05:09:21;;;;;;;103.30;30.50;;;1.70;75.60;;;;;;5016894;28;20101;-84
2021/12/10 05:11:48;;;;;;;89.90;30.70;;;1.70;75.60;;;;;;5017121;28;20022;-84
2021/12/10 05:14:14;;;;;;;105.83;29.57;;;1.60;75.60;;;;;;5036738;28;20056;-85
2021/12/10 05:16:43;;;;;;;;;;;1.60;75.60;;;;;;5030655;28;20032;-84
2021/12/10 05:19:11;;;;;;;88.77;28.27;;;1.60;75.70;;;;;;5032547;28;19908;-85
2021/12/10 05:21:38;;;;;;;105.37;28.97;;;1.70;75.40;;;;;;5029489;28;20524;-84
2021/12/10 05:24:06;;;;;;;89.13;28.80;;;1.70;75.50;;;;;;5039080;28;20492;-84
2021/12/10 05:26:33;;;;;;;94.03;29.03;;;1.60;75.60;;;;;;5025334;28;20033;-85
2021/12/10 05:28:58;;;;;;;98.77;30.60;;;1.60;75.60;;;;;;5025157;28;20041;-86
2021/12/10 05:31:24;;;;;;;;;;;1.70;75.70;;;;;;5028563;28;20053;-85
2021/12/10 05:33:50;;;;;;;100.63;29.13;;;1.70;75.70;;;;;;5028560;28;20323;-85
2021/12/10 05:36:16;;;;;;;;;;;1.60;75.40;;;;;;5024893;28;20057;-85
2021/12/10 05:38:41;;;;;;;98.53;29.80;;;1.70;75.60;;;;;;5030385;28;19948;-85
2021/12/10 05:41:09;;;;;;;102.53;31.45;;;1.70;75.40;;;;;;5028355;28;20503;-85
2021/12/10 05:43:37;;;;;;;104.70;31.40;;;1.60;75.50;;;;;;5029425;28;20474;-85
2021/12/10 05:46:03;;;;;;;104.03;30.30;;;1.60;75.60;;;;;;5039338;28;20394;-86
2021/12/10 05:48:28;;;;;;;;;;;1.50;75.70;;;;;;5031842;28;20079;-86
2021/12/10 05:50:54;;;;;;;90.53;28.57;;;1.50;75.80;;;;;;5024948;28;19931;-86
2021/12/10 05:53:20;;;;;;;;;;;1.40;75.60;;;;;;5036234;28;20393;-87
2021/12/10 05:55:46;;;;;;;93.80;29.47;;;1.50;75.80;;;;;;5034394;28;19920;-87
2021/12/10 05:58:13;;;;;;;107.10;30.17;;;1.50;75.70;;;;;;5034818;28;20052;-85
2021/12/10 06:00:44;;;;;;;112.27;34.00;;;1.40;75.80;;;;;;5034418;28;20025;-85
2021/12/10 06:03:10;;;;;;;102.90;31.50;;;1.40;75.90;;;;;;5024947;28;20021;-84
2021/12/10 06:05:37;;;;;;;97.50;28.87;;;1.50;75.90;;;;;;5030508;28;20379;-85
2021/12/10 06:08:04;;;;;;;100.73;29.57;;;1.50;75.90;;;;;;5019531;28;20482;-85
2021/12/10 06:10:30;;;;;;;114.80;32.20;;;1.50;75.90;;;;;;5027433;28;20029;-86
2021/12/10 06:12:57;;;;;;;99.17;29.63;;;1.50;75.90;;;;;;5027534;28;20112;-86
2021/12/10 06:15:25;;;;;;;97.23;28.50;;;1.50;75.90;;;;;;5032192;28;20029;-86
2021/12/10 06:17:54;;;;;;;97.10;29.83;;;1.60;76.00;;;;;;5027729;28;20022;-86
2021/12/10 06:20:23;;;;;;;98.73;30.07;;;1.60;75.90;;;;;;5034377;28;20091;-87
2021/12/10 06:22:50;;;;;;;100.07;28.63;;;1.60;75.90;;;;;;5026199;28;20037;-86
2021/12/10 06:25:16;;;;;;;102.73;31.50;;;1.60;75.90;;;;;;5026224;28;20351;-87
2021/12/10 06:27:44;;;;;;;110.67;31.90;;;1.60;75.90;;;;;;5034109;28;20025;-86
2021/12/10 06:30:15;;;;;;;98.13;31.77;;;1.60;75.90;;;;;;5036767;28;20384;-86
2021/12/10 06:32:43;;;;;;;100.03;30.83;;;1.60;75.90;;;;;;5046241;28;20068;-86
2021/12/10 06:35:10;;;;;;;109.60;32.17;;;1.60;75.90;;;;;;5031265;28;20506;-86
2021/12/10 06:37:36;;;;;;;105.67;31.63;;;1.60;75.90;;;;;;5019731;28;20057;-87
2021/12/10 06:40:06;;;;;;;115.90;31.53;;;1.70;75.90;;;;;;5020900;28;20422;-86
2021/12/10 06:42:31;;;;;;;105.23;31.90;;;1.70;75.90;;;;;;5048809;28;20017;-86
2021/12/10 06:44:57;;;;;;;;;;;1.80;75.80;;;;;;5026962;28;20123;-87
2021/12/10 06:47:22;;;;;;;106.43;33.70;;;1.80;75.80;;;;;;5035025;28;19999;-86
2021/12/10 06:49:48;;;;;;;;;;;1.80;75.60;;;;;;5024429;28;20069;-86
2021/12/10 06:52:14;;;;;;;111.27;36.47;;;1.80;75.70;;;;;;5027833;28;19921;-86
2021/12/10 06:54:39;;;;;;;;;;;1.80;75.40;;;;;;5035360;28;20021;-86
2021/12/10 06:57:05;;;;;;;149.87;42.60;;;1.80;75.50;;;;;;5017699;28;19909;-86
2021/12/10 06:59:31;;;;;;;142.13;45.65;;;1.80;75.40;;;;;;5044503;28;20382;-86
2021/12/10 07:01:56;;;;;;;140.10;44.78;;;1.70;75.60;;;;;;5036637;28;20021;-86
2021/12/10 07:04:22;;;;;;;141.88;44.58;;;1.80;75.70;;;;;;5029194;28;20114;-86
2021/12/10 07:06:48;;;;;;;;;;;1.80;75.80;;;;;;5023235;28;20032;-86
2021/12/10 07:09:19;;;;;;;118.03;33.87;;;1.80;75.80;;;;;;5025832;28;19909;-85
2021/12/10 07:11:45;;;;;;;132.43;36.47;;;1.80;75.50;;;;;;5019556;28;20026;-85
2021/12/10 07:14:11;;;;;;;121.57;34.97;;;1.80;75.70;;;;;;5035510;28;20040;-86
2021/12/10 07:16:36;;;;;;;;;;;1.90;75.70;;;;;;5021945;28;20335;-87
2021/12/10 07:19:04;;;;;;;106.50;32.77;;;2.00;75.80;;;;;;5021087;28;19919;-86
2021/12/10 07:21:31;;;;;;;128.70;39.93;;;2.00;75.50;;;;;;5023992;28;20532;-85
2021/12/10 07:23:58;;;;;;;163.67;52.60;;;2.10;75.50;;;;;;5020067;28;20510;-84
2021/12/10 07:26:24;;;;;;;208.80;66.70;;;2.10;75.50;;;;;;5017240;28;20121;-84
2021/12/10 07:28:49;;;;;;;;;;;2.10;75.50;;;;;;5033398;28;20056;-85
2021/12/10 07:31:15;;;;;;;428.70;133.53;;;2.10;75.50;;;;;;5017051;28;19934;-86
2021/12/10 07:33:41;;;;;;;;;;;2.10;75.30;;;;;;5037914;28;20021;-86
2021/12/10 07:36:07;;;;;;;140.73;44.43;;;2.10;75.50;;;;;;5026790;28;20317;-86
2021/12/10 07:38:33;;;;;;;167.57;52.53;;;2.10;75.40;;;;;;5029041;28;20021;-86
2021/12/10 07:41:00;;;;;;;108.60;34.27;;;2.10;75.60;;;;;;5028222;28;20022;-86
2021/12/10 07:43:25;;;;;;;114.33;35.97;;;2.10;75.70;;;;;;5023254;28;20018;-86
2021/12/10 07:45:52;;;;;;;;;;;2.30;75.60;;;;;;5023764;28;20045;-86
2021/12/10 07:48:22;;;;;;;104.13;31.37;;;2.30;75.60;;;;;;5012120;28;19922;-87
2021/12/10 07:50:57;;;;;;;120.67;36.33;;;2.40;75.10;;;;;;5015038;28;20061;-87
2021/12/10 07:53:25;;;;;;;117.93;36.93;;;2.50;75.10;;;;;;5017202;28;20045;-86
2021/12/10 07:55:51;;;;;;;106.13;35.23;;;2.60;75.20;;;;;;5014965;28;20466;-86
2021/12/10 07:58:17;;;;;;;;;;;2.80;75.10;;;;;;5022533;28;20022;-86
2021/12/10 08:00:45;;;;;;;101.13;32.50;;;2.90;74.90;;;;;;5030272;28;19909;-86
2021/12/10 08:03:11;;;;;;;104.10;34.43;;;3.00;74.20;;;;;;5033146;28;20052;-86
2021/12/10 08:05:39;;;;;;;108.77;35.03;;;3.00;74.20;;;;;;5038586;28;20025;-86
2021/12/10 08:08:06;;;;;;;103.70;32.73;;;3.10;74.30;;;;;;5029992;28;20021;-86
2021/12/10 08:10:33;;;;;;;96.07;31.30;;;3.20;74.20;;;;;;5031282;28;20378;-86
2021/12/10 08:12:59;;;;;;;115.27;37.63;;;3.30;74.10;;;;;;5036678;28;20576;-83
2021/12/10 08:15:25;;;;;;;;;;;3.30;74.00;;;;;;5023952;28;21200;-85
2021/12/10 08:17:50;;;;;;;100.73;32.63;;;3.30;74.10;;;;;;5030529;28;19905;-86
2021/12/10 08:20:19;;;;;;;;;;;3.40;74.00;;;;;;5043971;28;20037;-85
2021/12/10 08:22:46;;;;;;;96.10;33.17;;;3.40;73.90;;;;;;5055431;28;20358;-86
2021/12/10 08:25:12;;;;;;;100.63;35.00;;;3.40;73.80;;;;;;5023969;28;20466;-86
2021/12/10 08:27:38;;;;;;;;;;;3.40;73.90;;;;;;5034962;28;20039;-85
2021/12/10 08:30:06;;;;;;;92.53;32.87;;;3.50;74.00;;;;;;5039260;28;19909;-85
2021/12/10 08:32:32;;;;;;;102.17;36.27;;;3.50;73.80;;;;;;5028848;28;20037;-86
2021/12/10 08:34:58;;;;;;;;;;;3.50;73.90;;;;;;5050016;28;20449;-88
2021/12/10 08:37:24;;;;;;;112.00;35.90;;;3.50;74.00;;;;;;5028135;28;19944;-86
2021/12/10 08:39:50;;;;;;;;;;;3.40;73.90;;;;;;5026998;28;20022;-85
2021/12/10 08:42:15;;;;;;;115.53;37.43;;;3.30;74.20;;;;;;5025836;28;19921;-86
2021/12/10 08:44:42;;;;;;;;;;;3.30;74.20;;;;;;5034602;28;20020;-88
2021/12/10 08:47:09;;;;;;;88.15;31.67;;;3.30;74.20;;;;;;5033595;28;19912;-86
2021/12/10 08:49:36;;;;;;;97.33;32.07;;;3.20;74.10;;;;;;5027535;28;20029;-86
2021/12/10 08:52:03;;;;;;;96.93;35.47;;;3.10;74.20;;;;;;5027277;28;20080;-86
2021/12/10 08:54:31;;;;;;;106.63;35.53;;;3.00;74.50;;;;;;5027169;28;20032;-84
2021/12/10 08:56:58;;;;;;;106.67;35.40;;;2.90;74.70;;;;;;5031921;28;20066;-86
2021/12/10 08:59:25;;;;;;;100.50;35.23;;;2.80;74.80;;;;;;5030988;28;20021;-87
2021/12/10 09:02:00;;;;;;;90.63;32.43;;;2.90;74.80;;;;;;5028428;28;20021;-86
2021/12/10 09:04:27;;;;;;;95.90;32.17;;;2.90;74.80;;;;;;5024271;28;20022;-87
2021/12/10 09:07:02;;;;;;;87.27;32.03;;;3.10;74.60;;;;;;5031770;28;20020;-87
2021/12/10 09:09:30;;;;;;;82.63;29.97;;;3.20;74.40;;;;;;5028273;28;20022;-87
2021/12/10 09:11:59;;;;;;;82.87;30.07;;;3.30;74.20;;;;;;5025973;28;20029;-88
2021/12/10 09:14:29;;;;;;;91.07;31.73;;;3.40;73.90;;;;;;5046553;28;20025;-87
2021/12/10 09:16:57;;;;;;;88.80;31.20;;;3.50;73.80;;;;;;5035361;28;20371;-87
2021/12/10 09:19:23;;;;;;;81.07;29.00;;;3.70;73.70;;;;;;5027482;28;20014;-87
2021/12/10 09:21:50;;;;;;;83.27;28.57;;;3.80;73.40;;;;;;5035008;28;20076;-86
2021/12/10 09:24:17;;;;;;;;;;;3.80;73.20;;;;;;5028479;28;20410;-86
2021/12/10 09:26:46;;;;;;;84.17;29.73;;;3.80;73.20;;;;;;5064204;28;19912;-87
2021/12/10 09:29:14;;;;;;;82.63;31.27;;;3.90;72.90;;;;;;5024197;28;20037;-86
2021/12/10 09:31:42;;;;;;;88.90;32.57;;;3.90;72.90;;;;;;5021523;28;20383;-86
2021/12/10 09:34:08;;;;;;;85.10;30.23;;;3.80;72.90;;;;;;5033189;28;20096;-85
2021/12/10 09:36:34;;;;;;;88.57;31.83;;;3.80;72.90;;;;;;5030520;28;20017;-85
2021/12/10 09:39:00;;;;;;;;;;;3.80;72.90;;;;;;5034892;28;20032;-86
2021/12/10 09:41:27;;;;;;;85.20;30.07;;;3.70;73.00;;;;;;5035137;28;20286;-87
2021/12/10 09:43:53;;;;;;;96.40;33.83;;;3.70;72.90;;;;;;5027260;28;20092;-89
2021/12/10 09:46:20;;;;;;;234.30;77.33;;;3.60;73.10;;;;;;5032335;28;20018;-91
2021/12/10 09:48:50;;;;;;;172.07;60.50;;;3.60;73.30;;;;;;5027037;28;20379;-90
2021/12/10 09:51:28;;;;;;;97.53;34.93;;;3.60;73.30;;;;;;5033249;28;20044;-91
2021/12/10 09:54:01;;;;;;;91.30;34.97;;;3.60;73.40;;;;;;5034723;28;20493;-89
2021/12/10 09:56:47;;;;;;;114.80;41.37;;;3.70;73.20;;;;;;5040557;28;20504;-90
2021/12/10 09:59:13;;;;;;;127.97;50.37;;;3.70;73.10;;;;;;5027377;28;20025;-89
2021/12/10 10:01:51;;;;;;;94.50;34.63;;;4.00;73.00;;;;;;5034719;28;20231;-91
2021/12/10 10:04:29;;;;;;;89.67;35.97;;;4.40;72.30;;;;;;5015097;28;20033;-92
2021/12/10 10:06:59;;;;;;;91.37;34.13;;;4.70;71.60;;;;;;5035815;28;20017;-92
2021/12/10 10:09:26;;;;;;;90.17;33.70;;;4.80;71.50;;;;;;5035185;28;20531;-92
2021/12/10 10:12:34;;;;;;;90.90;35.50;;;5.00;71.40;;;;;;5034239;28;20553;-91
2021/12/10 10:21:28;;;;;;;81.37;34.67;;;7.30;67.80;;;;;;5032380;28;20482;-86
2021/12/10 10:23:56;;;;;;;86.38;35.92;;;7.70;66.90;;;;;;5027456;28;20169;-86
2021/12/10 10:26:31;;;;;;;75.07;34.22;;;8.20;66.40;;;;;;5033151;28;20029;-85
2021/12/10 10:28:59;;;;;;;86.53;35.30;;;8.80;65.00;;;;;;5038538;28;20477;-85
2021/12/10 10:31:25;;;;;;;89.22;36.35;;;9.20;64.20;;;;;;5039087;28;20017;-86
2021/12/10 10:33:53;;;;;;;;;;;9.30;63.30;;;;;;5039481;28;20492;-86
2021/12/10 10:36:23;;;;;;;86.68;36.13;;;9.30;63.60;;;;;;5039612;28;19954;-86
2021/12/10 10:38:58;;;;;;;77.50;33.72;;;9.20;63.60;;;;;;5039589;28;20029;-86
2021/12/10 10:41:27;;;;;;;89.78;37.58;;;9.10;63.10;;;;;;5040511;28;20116;-86
2021/12/10 10:43:53;;;;;;;85.10;35.08;;;8.80;63.20;;;;;;5040847;28;20033;-86
2021/12/10 10:46:19;;;;;;;89.70;36.05;;;8.60;63.40;;;;;;5044066;28;20028;-85
2021/12/10 10:48:48;;;;;;;;;;;8.40;63.50;;;;;;5041322;28;20089;-86
2021/12/10 10:51:17;;;;;;;80.10;36.33;;;8.30;63.90;;;;;;5038386;28;19905;-86
2021/12/10 10:53:47;;;;;;;90.85;38.85;;;8.20;63.80;;;;;;5038577;28;20021;-86
2021/12/10 10:56:18;;;;;;;101.97;41.63;;;8.10;63.70;;;;;;5031545;28;20088;-86
2021/12/10 10:58:50;;;;;;;108.97;42.75;;;8.00;63.50;;;;;;5034930;28;20037;-85
2021/12/10 11:01:46;;;;;;;94.40;37.80;;;7.80;63.60;;;;;;5039647;28;20382;-85
2021/12/10 11:04:24;;;;;;;97.97;36.97;;;7.60;63.70;;;;;;5024092;28;20127;-86
2021/12/10 11:06:52;;;;;;;105.03;38.53;;;7.50;63.80;;;;;;5055786;28;20031;-86
2021/12/10 11:09:27;;;;;;;85.57;35.17;;;7.40;63.80;;;;;;5044502;28;20081;-86
2021/12/10 11:12:12;;;;;;;95.75;36.67;;;7.30;63.60;;;;;;5021353;28;20032;-85
2021/12/10 11:14:45;;;;;;;94.03;37.10;;;7.30;63.50;;;;;;5037317;28;20013;-85
2021/12/10 11:17:15;;;;;;;92.93;39.15;;;7.30;63.50;;;;;;5020974;28;20029;-85
2021/12/10 11:20:09;;;;;;;92.20;37.17;;;7.30;63.60;;;;;;5023171;28;20486;-87
2021/12/10 11:22:43;;;;;;;94.20;37.33;;;7.30;63.50;;;;;;5021853;28;20038;-86
2021/12/10 11:25:25;;;;;;;87.18;36.65;;;7.40;63.60;;;;;;5022002;28;20026;-87
2021/12/10 11:28:00;;;;;;;94.05;36.85;;;7.50;63.40;;;;;;5028249;28;20385;-86
2021/12/10 11:30:27;;;;;;;80.70;34.70;;;7.60;63.30;;;;;;5024031;28;20051;-87
2021/12/10 11:33:01;;;;;;;86.93;34.75;;;7.80;63.10;;;;;;5029382;28;20022;-86
2021/12/10 11:35:42;;;;;;;87.32;36.58;;;7.80;62.90;;;;;;5032743;28;20031;-87
2021/12/10 11:38:22;;;;;;;80.50;36.00;;;7.90;62.60;;;;;;5027155;28;20020;-87
2021/12/10 11:41:05;;;;;;;82.80;34.47;;;7.90;62.40;;;;;;5016400;28;20379;-86
2021/12/10 11:44:06;;;;;;;81.88;33.25;;;8.00;62.30;;;;;;5022997;28;20009;-87
2021/12/10 11:47:01;;;;;;;95.68;38.10;;;8.00;62.10;;;;;;5023192;28;20024;-87
2021/12/10 11:49:38;;;;;;;83.13;34.42;;;8.00;62.00;;;;;;5014048;28;20610;-87
2021/12/10 11:52:07;;;;;;;87.70;35.35;;;8.00;62.10;;;;;;5025024;28;20037;-87
2021/12/10 11:54:53;;;;;;;81.90;33.08;;;8.00;62.10;;;;;;5028496;28;20044;-87
2021/12/10 11:57:32;;;;;;;86.25;36.28;;;8.00;61.80;;;;;;5024341;28;20092;-87
2021/12/10 12:00:04;;;;;;;89.22;35.95;;;8.00;61.90;;;;;;5013566;28;20405;-87
2021/12/10 12:02:35;;;;;;;85.57;34.83;;;7.90;61.90;;;;;;5014786;28;20038;-87
2021/12/10 12:05:09;;;;;;;86.85;36.28;;;7.90;61.80;;;;;;5025030;28;20030;-86
2021/12/10 12:07:39;;;;;;;85.40;36.30;;;7.90;61.80;;;;;;5035724;28;20021;-86
2021/12/10 12:10:23;;;;;;;83.93;35.30;;;7.80;61.80;;;;;;5028864;28;20026;-86
2021/12/10 12:12:52;;;;;;;87.32;37.35;;;7.80;61.70;;;;;;5034419;28;20024;-86
2021/12/10 12:15:33;;;;;;;92.40;37.88;;;7.80;61.80;;;;;;5050141;28;20033;-89
2021/12/10 12:18:01;;;;;;;111.78;46.63;;;7.80;61.90;;;;;;5057394;28;20029;-86
2021/12/10 12:20:35;;;;;;;113.63;47.00;;;7.70;62.00;;;;;;5020137;28;20014;-86
2021/12/10 12:25:54;;;;;;;120.80;46.45;;;7.40;62.40;;;;;;5053157;28;20378;-86
2021/12/10 12:28:24;;;;;;;98.07;41.57;;;7.30;62.70;;;;;;5018937;28;20024;-86
2021/12/10 12:30:58;;;;;;;96.35;41.53;;;7.20;62.90;;;;;;5028155;28;20113;-86
2021/12/10 12:33:26;;;;;;;88.80;36.00;;;7.20;63.00;;;;;;5026486;28;20041;-86
2021/12/10 12:35:54;;;;;;;97.40;39.83;;;7.10;63.10;;;;;;5030524;28;20064;-86
2021/12/10 12:38:27;;;;;;;95.07;39.87;;;6.90;63.20;;;;;;5028119;28;20018;-87
2021/12/10 12:41:13;;;;;;;97.40;42.57;;;6.80;63.50;;;;;;5029575;28;20069;-86
2021/12/10 12:43:41;;;;;;;115.72;48.35;;;6.80;63.70;;;;;;5031473;28;20029;-85
2021/12/10 12:46:10;;;;;;;113.00;47.75;;;6.70;63.80;;;;;;5033178;28;20051;-86
2021/12/10 12:48:39;;;;;;;115.97;49.07;;;6.60;64.00;;;;;;5031774;28;20057;-86
2021/12/10 12:51:12;;;;;;;105.33;42.63;;;6.50;64.20;;;;;;5036488;28;20029;-86
2021/12/10 12:53:38;;;;;;;116.57;43.93;;;6.40;64.40;;;;;;5040377;28;20042;-87
2021/12/10 12:56:11;;;;;;;;;;;6.40;64.60;;;;;;5045143;28;20036;-85
2021/12/10 12:58:53;;;;;;;100.63;39.13;;;6.40;64.70;;;;;;5044786;28;20389;-86
2021/12/10 13:01:26;;;;;;;100.43;40.83;;;6.30;64.60;;;;;;5033661;28;20108;-87
2021/12/10 13:03:52;;;;;;;104.90;42.13;;;6.20;64.70;;;;;;5026110;28;20022;-86
2021/12/10 13:06:30;;;;;;;;;;;6.20;64.90;;;;;;5017825;28;20104;-85
2021/12/10 13:09:01;;;;;;;108.80;40.50;;;6.20;65.10;;;;;;5033290;28;19912;-86
2021/12/10 13:14:57;;;;;;;122.10;46.15;;;6.10;65.20;;;;;;5038248;28;20095;-85
2021/12/10 13:17:45;;;;;;;114.97;46.03;;;5.90;65.30;;;;;;5011573;28;20079;-86
2021/12/10 13:20:20;;;;;;;120.80;46.60;;;5.80;65.70;;;;;;5019225;28;20029;-86